createdAt,value
2019-05-26T00:02:57.966Z,7.25
2019-05-26T00:13:04.660Z,6.57
2019-05-26T00:18:03.456Z,5.83
2019-05-26T00:23:04.618Z,6.63
2019-05-26T00:28:05.243Z,8.66
2019-05-26T00:43:10.427Z,6.59
2019-05-26T00:47:58.800Z,4.62
2019-05-26T00:53:18.913Z,3.89
2019-05-26T01:03:24.136Z,3.88
2019-05-26T01:08:12.721Z,3.89
2019-05-26T01:13:32.966Z,5.94
2019-05-26T01:23:24.440Z,3.93
2019-05-26T01:28:32.856Z,4.23
2019-05-26T01:33:40.275Z,3.91
2019-05-26T01:38:47.775Z,4.78
2019-05-26T01:43:55.495Z,4.61
2019-05-26T01:49:15.813Z,7.55
2019-05-26T01:59:24.641Z,10.92
2019-05-26T02:04:24.884Z,11.73
2019-05-26T02:09:25.143Z,8.71
2019-05-26T02:14:25.353Z,7.56
2019-05-26T02:15:45.859Z,7.77
2019-05-26T02:20:46.071Z,6.86
2019-05-26T02:25:33.391Z,9.24
2019-05-26T02:30:56.616Z,8.54
2019-05-26T02:35:44.948Z,7.37
2019-05-26T02:40:52.303Z,9.72
2019-05-26T02:51:16.271Z,7.51
2019-05-26T02:56:16.433Z,7.55
2019-05-26T03:06:08.835Z,7.89
2019-05-26T03:16:32.791Z,10.17
2019-05-26T03:21:33.953Z,11.43
2019-05-26T03:26:22.440Z,11.62
2019-05-26T03:31:42.709Z,15.20
2019-05-26T03:36:44.041Z,14.33
2019-05-26T03:41:31.441Z,15.94
2019-05-26T03:46:51.565Z,14.65
2019-05-26T03:51:53.573Z,13.02
2019-05-26T03:56:40.733Z,14.14
2019-05-26T04:07:05.743Z,14.08
2019-05-26T04:11:53.157Z,12.56
2019-05-26T04:17:02.491Z,11.12
2019-05-26T04:22:23.809Z,12.57
2019-05-26T04:27:24.062Z,11.46
2019-05-26T04:32:11.370Z,10.97
2019-05-26T04:37:18.804Z,14.73
2019-05-26T04:42:39.110Z,11.53
2019-05-26T04:53:02.063Z,9.98
2019-05-26T04:57:47.029Z,9.76
2019-05-26T05:02:36.319Z,9.30
2019-05-26T05:17:51.685Z,12.29
2019-05-26T05:22:59.098Z,14.12
2019-05-26T05:28:19.325Z,12.88
2019-05-26T05:33:06.553Z,12.44
2019-05-26T05:38:27.567Z,10.20
2019-05-26T05:43:29.781Z,13.66
2019-05-26T05:48:29.895Z,13.24
2019-05-26T05:53:18.467Z,12.19
2019-05-26T05:58:38.698Z,14.83
2019-05-26T06:03:26.027Z,15.17
2019-05-26T06:18:42.272Z,16.01
2019-05-26T06:28:56.319Z,16.15
2019-05-26T06:33:53.903Z,18.52
2019-05-26T06:39:13.981Z,19.68
2019-05-26T06:44:02.495Z,19.83
2019-05-26T06:49:22.654Z,18.12
2019-05-26T06:54:23.958Z,14.97
2019-05-26T07:04:32.147Z,8.21
2019-05-26T07:09:33.152Z,7.41
2019-05-26T07:19:26.304Z,11.83
2019-05-26T07:24:46.627Z,9.00
2019-05-26T07:29:48.729Z,9.65
2019-05-26T07:34:37.163Z,7.29
2019-05-26T07:39:44.498Z,7.28
2019-05-26T07:44:51.826Z,7.14
2019-05-26T07:50:13.959Z,8.76
2019-05-26T07:55:15.136Z,6.78
2019-05-26T08:00:15.485Z,5.13
2019-05-26T08:05:15.777Z,6.97
2019-05-26T08:10:03.135Z,6.83
2019-05-26T08:15:10.588Z,5.12
2019-05-26T08:20:32.033Z,1.40
2019-05-26T08:25:31.628Z,1.37
2019-05-26T08:30:31.945Z,3.80
2019-05-26T08:35:19.619Z,2.62
2019-05-26T08:45:30.917Z,3.36
2019-05-26T08:50:51.292Z,2.96
2019-05-26T08:55:40.870Z,1.93
2019-05-26T09:01:00.893Z,3.27
2019-05-26T09:06:02.103Z,2.81
2019-05-26T09:10:50.371Z,2.95
2019-05-26T09:15:57.724Z,1.91
2019-05-26T09:21:19.942Z,3.26
2019-05-26T09:26:20.063Z,2.61
2019-05-26T09:36:13.277Z,3.02
2019-05-26T09:46:21.683Z,2.95
2019-05-26T09:51:41.752Z,3.89
2019-05-26T09:56:43.115Z,3.68
2019-05-26T10:01:30.382Z,3.27
2019-05-26T10:06:38.028Z,6.90
2019-05-26T10:11:50.914Z,6.16
2019-05-26T10:16:39.311Z,10.24
2019-05-26T10:27:00.675Z,6.74
2019-05-26T10:32:01.873Z,6.40
2019-05-26T10:36:50.175Z,6.42
2019-05-26T10:46:59.355Z,5.25
2019-05-26T10:52:20.730Z,5.78
2019-05-26T10:57:08.227Z,10.99
2019-05-26T11:02:16.459Z,6.34
2019-05-26T11:12:28.711Z,5.05
2019-05-26T11:17:49.052Z,4.60
2019-05-26T11:22:37.608Z,3.78
2019-05-26T11:32:59.679Z,5.30
2019-05-26T11:37:59.262Z,5.12
2019-05-26T11:53:07.161Z,5.61
2019-05-26T11:58:08.326Z,8.59
2019-05-26T12:03:09.674Z,10.19
2019-05-26T12:07:57.592Z,8.16
2019-05-26T12:18:07.065Z,4.83
2019-05-26T12:23:14.528Z,5.96
2019-05-26T12:28:22.117Z,5.67
2019-05-26T12:33:42.333Z,3.15
2019-05-26T12:38:44.610Z,6.45
2019-05-26T12:48:48.593Z,5.57
2019-05-26T12:53:48.959Z,5.60
2019-05-26T12:58:36.901Z,6.70
2019-05-26T13:03:57.168Z,7.55
2019-05-26T13:08:57.478Z,8.61
2019-05-26T13:24:02.834Z,8.89
2019-05-26T13:34:05.306Z,8.38
2019-05-26T13:43:54.590Z,6.75
2019-05-26T13:49:04.426Z,8.86
2019-05-26T13:54:16.015Z,7.36
2019-05-26T14:09:21.388Z,8.91
2019-05-26T14:14:22.624Z,7.55
2019-05-26T14:19:11.135Z,8.52
2019-05-26T14:24:32.474Z,6.26
2019-05-26T14:29:33.629Z,5.10
2019-05-26T14:34:37.873Z,5.45
2019-05-26T14:39:39.108Z,7.98
2019-05-26T14:44:29.734Z,6.47
2019-05-26T14:54:29.338Z,6.58
2019-05-26T14:59:39.096Z,7.35
2019-05-26T15:04:46.498Z,5.86
2019-05-26T15:09:56.191Z,5.09
2019-05-26T15:15:03.585Z,9.34
2019-05-26T15:20:23.758Z,6.86
2019-05-26T15:35:32.055Z,4.96
2019-05-26T15:40:20.888Z,5.27
2019-05-26T15:45:40.446Z,7.24
2019-05-26T15:50:40.880Z,6.95
2019-05-26T15:55:41.093Z,9.14
2019-05-26T16:00:41.408Z,6.75
2019-05-26T16:05:41.700Z,9.02
2019-05-26T16:10:29.234Z,7.43
2019-05-26T16:15:49.507Z,6.26
2019-05-26T16:21:02.399Z,9.80
2019-05-26T16:25:38.424Z,8.70
2019-05-26T16:30:59.813Z,6.49
2019-05-26T16:36:00.100Z,8.37
2019-05-26T16:40:47.475Z,10.86
2019-05-26T16:50:59.920Z,7.44
2019-05-26T16:56:21.026Z,5.88
2019-05-26T17:01:22.499Z,6.06
2019-05-26T17:06:09.798Z,6.47
2019-05-26T17:11:18.386Z,5.93
2019-05-26T17:16:25.831Z,6.23
2019-05-26T17:21:46.296Z,5.15
2019-05-26T17:26:34.749Z,5.28
2019-05-26T17:31:56.261Z,5.86
2019-05-26T17:36:56.430Z,5.65
2019-05-26T17:41:43.938Z,6.76
2019-05-26T17:47:04.107Z,6.98
2019-05-26T17:51:52.583Z,6.39
2019-05-26T18:07:25.242Z,7.87
2019-05-26T18:17:45.861Z,7.15
2019-05-26T18:22:30.844Z,8.36
2019-05-26T18:27:32.657Z,8.18
2019-05-26T18:32:33.205Z,5.60
2019-05-26T18:37:33.551Z,7.68
2019-05-26T18:42:21.287Z,8.05
2019-05-26T18:52:46.309Z,5.73
2019-05-26T18:57:46.665Z,5.63
2019-05-26T19:02:34.111Z,6.14
2019-05-26T19:07:41.512Z,9.04
2019-05-26T19:18:18.759Z,6.77
2019-05-26T19:22:57.335Z,6.53
2019-05-26T19:28:07.775Z,9.13
2019-05-26T19:32:59.111Z,6.65
2019-05-26T19:48:14.225Z,9.28
2019-05-26T19:53:22.068Z,7.76
2019-05-26T20:03:49.608Z,8.32
2019-05-26T20:13:41.186Z,8.08
2019-05-26T20:18:48.668Z,7.25
2019-05-26T20:24:09.059Z,7.70
2019-05-26T20:29:09.224Z,7.71
2019-05-26T20:44:02.622Z,9.31
2019-05-26T20:49:23.098Z,10.32
2019-05-26T20:54:10.720Z,7.51
2019-05-26T20:59:35.119Z,8.70
2019-05-26T21:04:35.679Z,8.02
2019-05-26T21:19:27.928Z,8.28
2019-05-26T21:24:48.167Z,8.35
2019-05-26T21:29:49.438Z,9.87
2019-05-26T21:34:50.917Z,7.27
2019-05-26T22:09:59.518Z,10.29
2019-05-26T22:15:08.078Z,8.33
2019-05-26T22:25:19.709Z,7.95
2019-05-26T22:30:39.976Z,6.80
2019-05-26T22:35:40.197Z,6.16
2019-05-26T22:40:30.976Z,8.37
2019-05-26T22:45:38.433Z,5.26
2019-05-26T22:50:45.897Z,9.68
2019-05-26T22:55:53.586Z,8.88
2019-05-26T23:06:18.719Z,8.03
2019-05-26T23:11:06.112Z,8.94
2019-05-26T23:21:18.461Z,8.07
2019-05-26T23:26:27.078Z,7.31
2019-05-26T23:31:48.273Z,7.73
2019-05-26T23:36:35.737Z,8.39
2019-05-26T23:46:47.415Z,8.87
2019-05-26T23:51:54.721Z,9.30
2019-05-26T23:57:02.087Z,7.03
